createdAt,value
2022-08-08T00:00:50.593Z,59.55
2022-08-08T00:02:46.575Z,60.64
2022-08-08T00:06:02.939Z,60.67
2022-08-08T00:09:16.803Z,60.09
2022-08-08T00:12:29.601Z,61.33
2022-08-08T00:15:57.104Z,61.03
2022-08-08T00:19:11.442Z,60.70
2022-08-08T00:22:21.952Z,60.56
2022-08-08T00:25:45.054Z,60.39
2022-08-08T00:29:00.482Z,61.75
2022-08-08T00:32:28.742Z,62.04
2022-08-08T00:35:43.248Z,62.70
2022-08-08T00:39:00.758Z,61.79
2022-08-08T00:42:43.530Z,61.69
2022-08-08T00:46:32.098Z,62.54
2022-08-08T00:50:26.235Z,61.88
2022-08-08T00:54:04.168Z,61.75
2022-08-08T00:57:57.050Z,62.76
2022-08-08T01:01:19.552Z,62.77
2022-08-08T01:05:29.238Z,62.88
2022-08-08T01:09:36.530Z,63.25
2022-08-08T01:13:17.906Z,63.10
2022-08-08T01:17:01.962Z,62.35
2022-08-08T01:20:49.874Z,63.07
2022-08-08T01:24:37.779Z,62.45
2022-08-08T01:28:28.034Z,62.76
2022-08-08T01:32:15.681Z,64.26
2022-08-08T01:35:38.528Z,64.71
2022-08-08T01:39:23.530Z,63.49
2022-08-08T01:42:38.644Z,64.88
2022-08-08T01:45:58.583Z,64.13
2022-08-08T01:49:23.420Z,63.80
2022-08-08T01:54:19.295Z,63.84
2022-08-08T01:56:34.158Z,63.00
2022-08-08T02:00:12.914Z,64.62
2022-08-08T02:03:55.091Z,63.59
2022-08-08T02:07:07.402Z,63.63
2022-08-08T02:10:44.920Z,63.97
2022-08-08T02:13:56.450Z,64.78
2022-08-08T02:17:17.978Z,65.42
2022-08-08T02:21:03.192Z,65.82
2022-08-08T02:24:00.070Z,66.89
2022-08-08T02:27:09.433Z,66.40
2022-08-08T02:30:24.687Z,65.96
2022-08-08T02:34:08.499Z,67.24
2022-08-08T02:37:51.367Z,66.98
2022-08-08T02:40:59.924Z,68.25
2022-08-08T02:44:38.333Z,68.86
2022-08-08T02:48:32.371Z,67.99
2022-08-08T02:52:32.929Z,66.54
2022-08-08T02:56:09.591Z,65.96
2022-08-08T03:00:26.771Z,66.39
2022-08-08T03:05:08.940Z,64.92
2022-08-08T03:07:59.309Z,64.49
2022-08-08T03:12:02.536Z,64.49
2022-08-08T03:15:56.572Z,64.88
2022-08-08T03:19:05.109Z,65.38
2022-08-08T03:22:38.626Z,64.93
2022-08-08T03:25:36.371Z,64.57
2022-08-08T03:28:45.412Z,64.88
2022-08-08T03:32:29.088Z,63.86
2022-08-08T03:35:39.658Z,63.92
2022-08-08T03:38:53.934Z,63.40
2022-08-08T03:42:26.641Z,63.70
2022-08-08T03:46:05.358Z,64.11
2022-08-08T03:49:30.909Z,64.23
2022-08-08T03:52:22.999Z,63.97
2022-08-08T03:55:57.793Z,63.07
2022-08-08T03:58:57.205Z,62.54
2022-08-08T04:02:31.501Z,62.12
2022-08-08T04:05:29.089Z,62.02
2022-08-08T04:08:39.018Z,61.33
2022-08-08T04:11:58.624Z,61.78
2022-08-08T04:15:30.657Z,59.92
2022-08-08T04:18:48.521Z,60.93
2022-08-08T04:21:56.553Z,60.99
2022-08-08T04:25:03.508Z,60.55
2022-08-08T04:28:37.294Z,59.46
2022-08-08T04:31:59.769Z,58.37
2022-08-08T04:34:58.448Z,57.67
2022-08-08T04:38:09.587Z,57.99
2022-08-08T04:41:21.445Z,57.31
2022-08-08T04:44:26.870Z,58.14
2022-08-08T04:47:32.739Z,56.70
2022-08-08T04:50:47.033Z,57.39
2022-08-08T04:54:40.043Z,55.87
2022-08-08T04:57:16.757Z,55.12
2022-08-08T05:00:20.469Z,54.21
2022-08-08T05:04:07.749Z,54.02
2022-08-08T05:06:52.227Z,54.33
2022-08-08T05:09:57.641Z,53.72
2022-08-08T05:13:03.740Z,52.71
2022-08-08T05:16:50.860Z,53.04
2022-08-08T05:20:11.780Z,52.99
2022-08-08T05:23:08.465Z,53.11
2022-08-08T05:26:14.219Z,51.57
2022-08-08T05:29:17.984Z,52.21
2022-08-08T05:32:24.635Z,50.66
2022-08-08T05:35:35.850Z,52.35
2022-08-08T05:38:49.355Z,51.93
2022-08-08T05:41:57.522Z,50.82
2022-08-08T05:45:24.688Z,50.71
2022-08-08T05:48:31.279Z,49.75
2022-08-08T05:51:49.177Z,49.31
2022-08-08T05:55:02.269Z,49.52
2022-08-08T05:58:17.266Z,49.40
2022-08-08T06:01:52.777Z,49.19
2022-08-08T06:04:55.069Z,48.82
2022-08-08T06:08:10.296Z,47.55
2022-08-08T06:11:28.360Z,48.93
2022-08-08T06:14:33.296Z,49.38
2022-08-08T06:17:50.963Z,47.57
2022-08-08T06:21:11.799Z,47.19
2022-08-08T06:24:35.871Z,46.69
2022-08-08T06:27:48.441Z,45.55
2022-08-08T06:30:57.782Z,45.00
2022-08-08T06:34:26.504Z,44.13
2022-08-08T06:37:37.369Z,43.56
2022-08-08T06:40:54.102Z,42.83
2022-08-08T06:44:04.686Z,42.87
2022-08-08T06:47:16.325Z,43.02
2022-08-08T06:50:31.966Z,42.34
2022-08-08T06:53:39.646Z,42.20
2022-08-08T06:56:56.782Z,42.17
2022-08-08T07:00:12.380Z,42.25
2022-08-08T07:03:52.139Z,42.65
2022-08-08T07:06:57.337Z,41.59
2022-08-08T07:10:08.169Z,40.97
2022-08-08T07:13:27.753Z,40.58
2022-08-08T07:16:51.041Z,39.58
2022-08-08T07:20:05.154Z,40.49
2022-08-08T07:23:22.497Z,39.31
2022-08-08T07:26:35.518Z,38.55
2022-08-08T07:29:59.706Z,38.98
2022-08-08T07:33:17.438Z,37.83
2022-08-08T07:36:24.431Z,38.37
2022-08-08T07:39:45.249Z,37.82
2022-08-08T07:42:53.761Z,36.02
2022-08-08T07:46:17.980Z,35.77
2022-08-08T07:49:22.358Z,36.57
2022-08-08T07:52:28.459Z,34.36
2022-08-08T07:55:36.408Z,33.61
2022-08-08T07:58:43.868Z,33.03
2022-08-08T08:02:35.904Z,33.02
2022-08-08T08:05:33.707Z,34.01
2022-08-08T08:08:41.830Z,32.13
2022-08-08T08:11:57.259Z,32.19
2022-08-08T08:15:09.223Z,31.90
2022-08-08T08:18:31.655Z,32.22
2022-08-08T08:21:52.724Z,31.36
2022-08-08T08:25:12.827Z,30.79
2022-08-08T08:28:24.096Z,30.01
2022-08-08T08:31:30.953Z,29.31
2022-08-08T08:34:48.604Z,29.64
2022-08-08T08:38:15.715Z,28.66
2022-08-08T08:41:20.208Z,29.42
2022-08-08T08:44:30.692Z,28.40
2022-08-08T08:47:44.128Z,28.34
2022-08-08T08:50:52.607Z,28.08
2022-08-08T08:54:02.028Z,28.00
2022-08-08T08:57:17.437Z,28.47
2022-08-08T09:00:24.836Z,27.85
2022-08-08T09:03:46.094Z,27.73
2022-08-08T09:06:56.984Z,27.48
2022-08-08T09:10:04.558Z,27.80
2022-08-08T09:13:18.397Z,27.24
2022-08-08T09:16:33.335Z,27.53
2022-08-08T09:21:59.384Z,26.65
2022-08-08T09:23:04.000Z,27.46
2022-08-08T09:26:14.800Z,26.84
2022-08-08T09:29:24.785Z,26.74
2022-08-08T09:32:38.020Z,26.21
2022-08-08T09:35:49.388Z,26.02
2022-08-08T09:39:01.593Z,25.79
2022-08-08T09:42:20.394Z,26.49
2022-08-08T09:46:01.047Z,27.11
2022-08-08T09:48:57.042Z,27.03
2022-08-08T09:52:06.353Z,25.95
2022-08-08T09:55:12.759Z,25.65
2022-08-08T09:58:33.215Z,25.90
2022-08-08T10:02:00.024Z,25.58
2022-08-08T10:05:15.437Z,25.35
2022-08-08T10:08:23.310Z,25.37
2022-08-08T10:12:26.222Z,25.56
2022-08-08T10:15:01.665Z,26.10
2022-08-08T10:18:11.656Z,25.62
2022-08-08T10:21:22.817Z,24.52
2022-08-08T10:24:34.961Z,25.48
2022-08-08T10:27:44.355Z,25.94
2022-08-08T10:30:59.796Z,25.48
2022-08-08T10:34:18.040Z,25.43
2022-08-08T10:37:27.668Z,24.89
2022-08-08T10:40:33.995Z,24.80
2022-08-08T10:43:43.125Z,24.17
2022-08-08T10:46:48.458Z,24.02
2022-08-08T10:50:00.515Z,24.08
2022-08-08T10:53:07.606Z,23.80
2022-08-08T10:56:27.708Z,23.91
2022-08-08T10:59:40.878Z,24.38
2022-08-08T11:02:44.636Z,24.38
2022-08-08T11:05:51.862Z,23.20
2022-08-08T11:09:15.136Z,24.16
2022-08-08T11:12:23.861Z,24.10
2022-08-08T11:15:33.317Z,24.37
2022-08-08T11:18:37.961Z,23.77
2022-08-08T11:21:54.252Z,24.28
2022-08-08T11:25:02.446Z,24.85
2022-08-08T11:28:29.533Z,25.29
2022-08-08T11:31:46.777Z,25.06
2022-08-08T11:35:10.523Z,24.84
2022-08-08T11:38:39.785Z,24.62
2022-08-08T11:41:45.142Z,23.52
2022-08-08T11:44:49.772Z,24.55
2022-08-08T11:48:04.706Z,24.71
2022-08-08T11:51:29.829Z,23.98
2022-08-08T11:54:38.109Z,24.20
2022-08-08T11:57:51.761Z,22.73
2022-08-08T12:01:12.151Z,24.04
2022-08-08T12:04:21.694Z,24.34
2022-08-08T12:07:25.983Z,23.75
2022-08-08T12:10:32.099Z,23.98
2022-08-08T12:14:02.960Z,23.15
2022-08-08T12:17:00.676Z,23.75
2022-08-08T12:20:06.624Z,22.81
2022-08-08T12:23:25.225Z,23.08
2022-08-08T12:26:41.613Z,23.38
2022-08-08T12:29:56.301Z,23.28
2022-08-08T12:33:02.016Z,22.78
2022-08-08T12:36:16.761Z,22.68
2022-08-08T12:40:00.020Z,22.57
2022-08-08T12:42:51.533Z,22.59
2022-08-08T12:45:55.197Z,23.43
2022-08-08T12:49:42.950Z,21.90
2022-08-08T12:52:34.738Z,22.40
2022-08-08T12:56:06.236Z,22.52
2022-08-08T12:59:03.124Z,22.52
2022-08-08T13:02:08.298Z,21.64
2022-08-08T13:05:26.366Z,22.15
2022-08-08T13:08:53.779Z,21.88
2022-08-08T13:12:37.709Z,21.74
2022-08-08T13:15:23.274Z,22.17
2022-08-08T13:18:27.643Z,22.46
2022-08-08T13:21:36.508Z,22.50
2022-08-08T13:24:57.165Z,23.04
2022-08-08T13:28:01.705Z,22.82
2022-08-08T13:31:06.122Z,22.44
2022-08-08T13:34:21.339Z,22.60
2022-08-08T13:38:04.837Z,21.89
2022-08-08T13:41:02.802Z,21.81
2022-08-08T13:44:10.770Z,22.37
2022-08-08T13:47:18.365Z,23.00
2022-08-08T13:50:35.282Z,23.53
2022-08-08T13:54:00.076Z,23.62
2022-08-08T13:57:11.359Z,24.18
2022-08-08T14:00:21.140Z,22.71
2022-08-08T14:03:52.486Z,22.08
2022-08-08T14:07:00.449Z,22.16
2022-08-08T14:10:11.773Z,23.06
2022-08-08T14:13:33.449Z,23.92
2022-08-08T14:16:37.644Z,23.23
2022-08-08T14:19:58.179Z,23.38
2022-08-08T14:23:10.198Z,23.28
2022-08-08T14:26:22.228Z,23.71
2022-08-08T14:29:34.530Z,23.81
2022-08-08T14:32:47.226Z,23.29
2022-08-08T14:36:00.852Z,22.99
2022-08-08T14:39:11.521Z,23.57
2022-08-08T14:42:16.736Z,22.80
2022-08-08T14:45:33.508Z,23.12
2022-08-08T14:48:52.305Z,24.60
2022-08-08T14:52:09.091Z,25.82
2022-08-08T14:55:14.536Z,25.93
2022-08-08T14:58:20.352Z,26.48
2022-08-08T15:01:37.524Z,26.69
2022-08-08T15:04:45.509Z,26.70
2022-08-08T15:07:53.678Z,26.01
2022-08-08T15:11:04.702Z,25.23
2022-08-08T15:14:13.646Z,24.56
2022-08-08T15:17:18.955Z,24.41
2022-08-08T15:20:22.875Z,23.45
2022-08-08T15:23:33.281Z,23.62
2022-08-08T15:26:39.376Z,23.90
2022-08-08T15:29:43.338Z,24.27
2022-08-08T15:32:48.777Z,24.39
2022-08-08T15:35:52.160Z,24.51
2022-08-08T15:38:56.268Z,24.46
2022-08-08T15:41:59.830Z,24.77
2022-08-08T15:45:04.972Z,26.13
2022-08-08T15:48:15.971Z,25.91
2022-08-08T15:51:19.754Z,25.85
2022-08-08T15:54:38.515Z,26.04
2022-08-08T15:57:43.799Z,26.26
2022-08-08T16:00:50.664Z,26.64
2022-08-08T16:03:55.591Z,26.35
2022-08-08T16:06:58.963Z,26.66
2022-08-08T16:13:13.800Z,27.29
2022-08-08T16:13:33.411Z,26.80
2022-08-08T16:16:50.457Z,26.31
2022-08-08T16:19:59.856Z,26.64
2022-08-08T16:23:04.915Z,27.81
2022-08-08T16:26:17.452Z,28.15
2022-08-08T16:29:37.012Z,29.03
2022-08-08T16:32:41.212Z,29.72
2022-08-08T16:35:47.027Z,30.75
2022-08-08T16:38:53.883Z,31.12
2022-08-08T16:42:01.222Z,30.03
2022-08-08T16:45:11.594Z,31.65
2022-08-08T16:48:32.074Z,39.01
2022-08-08T16:55:00.954Z,40.29
2022-08-08T16:55:54.544Z,39.47
2022-08-08T16:58:34.485Z,40.66
2022-08-08T17:01:39.759Z,40.14
2022-08-08T17:04:43.226Z,40.04
2022-08-08T17:07:51.612Z,38.65
2022-08-08T17:10:58.717Z,40.33
2022-08-08T17:14:18.717Z,40.77
2022-08-08T17:18:01.379Z,39.87
2022-08-08T17:20:47.590Z,39.96
2022-08-08T17:24:01.553Z,38.36
2022-08-08T17:27:07.432Z,39.24
2022-08-08T17:30:16.335Z,39.43
2022-08-08T17:34:48.745Z,38.10
2022-08-08T17:37:00.966Z,36.90
2022-08-08T17:40:12.802Z,36.32
2022-08-08T17:43:18.497Z,36.31
2022-08-08T17:46:38.767Z,36.07
2022-08-08T17:49:43.478Z,37.28
2022-08-08T17:52:47.769Z,37.31
2022-08-08T17:56:07.154Z,37.72
2022-08-08T17:59:11.703Z,37.68
2022-08-08T18:02:18.825Z,37.63
2022-08-08T18:05:25.205Z,36.97
2022-08-08T18:08:40.941Z,37.00
2022-08-08T18:11:49.121Z,36.73
2022-08-08T18:14:54.537Z,37.43
2022-08-08T18:18:10.095Z,37.65
2022-08-08T18:21:34.668Z,37.39
2022-08-08T18:24:48.609Z,37.70
2022-08-08T18:27:54.741Z,37.49
2022-08-08T18:30:58.203Z,37.44
2022-08-08T18:34:12.380Z,37.06
2022-08-08T18:37:34.060Z,37.19
2022-08-08T18:40:38.177Z,36.68
2022-08-08T18:43:43.521Z,37.35
2022-08-08T18:46:56.559Z,37.16
2022-08-08T18:50:03.000Z,37.65
2022-08-08T18:53:06.490Z,37.47
2022-08-08T18:56:21.602Z,37.71
2022-08-08T18:59:34.346Z,37.70
2022-08-08T19:02:38.101Z,37.64
2022-08-08T19:05:52.008Z,38.39
2022-08-08T19:08:55.382Z,38.85
2022-08-08T19:12:00.552Z,38.42
2022-08-08T19:15:05.739Z,38.53
2022-08-08T19:18:31.796Z,38.13
2022-08-08T19:21:48.880Z,37.94
2022-08-08T19:25:04.929Z,38.04
2022-08-08T19:28:18.096Z,38.08
2022-08-08T19:31:31.491Z,38.31
2022-08-08T19:34:41.623Z,38.08
2022-08-08T19:37:48.588Z,38.21
2022-08-08T19:41:00.868Z,38.38
2022-08-08T19:44:12.996Z,38.53
2022-08-08T19:47:33.892Z,38.95
2022-08-08T19:50:37.642Z,38.72
2022-08-08T19:53:53.358Z,39.28
2022-08-08T19:56:57.644Z,39.19
2022-08-08T20:00:02.270Z,39.09
2022-08-08T20:04:00.879Z,39.08
2022-08-08T20:06:41.843Z,39.17
2022-08-08T20:09:55.898Z,39.35
2022-08-08T20:14:32.426Z,39.77
2022-08-08T20:16:29.507Z,39.63
2022-08-08T20:19:42.350Z,40.09
2022-08-08T20:22:49.017Z,40.63
2022-08-08T20:25:57.475Z,40.50
2022-08-08T20:29:00.811Z,40.61
2022-08-08T20:32:09.957Z,40.96
2022-08-08T20:35:17.875Z,41.48
2022-08-08T20:38:32.195Z,41.54
2022-08-08T20:41:36.434Z,41.81
2022-08-08T20:44:44.476Z,42.05
2022-08-08T20:47:48.713Z,41.14
2022-08-08T20:51:03.445Z,41.96
2022-08-08T20:54:13.901Z,41.20
2022-08-08T20:57:21.113Z,41.46
2022-08-08T21:00:25.624Z,42.37
2022-08-08T21:03:29.868Z,41.77
2022-08-08T21:06:52.100Z,41.71
2022-08-08T21:10:08.015Z,41.69
2022-08-08T21:13:16.285Z,41.44
2022-08-08T21:16:28.806Z,41.90
2022-08-08T21:19:44.448Z,42.27
2022-08-08T21:22:50.926Z,42.01
2022-08-08T21:25:55.023Z,41.59
2022-08-08T21:29:01.167Z,41.17
2022-08-08T21:32:14.347Z,41.18
2022-08-08T21:36:13.726Z,41.60
2022-08-08T21:38:53.203Z,41.13
2022-08-08T21:41:59.334Z,40.83
2022-08-08T21:45:44.744Z,40.84
2022-08-08T21:48:35.329Z,40.43
2022-08-08T21:54:18.641Z,40.22
2022-08-08T21:56:18.546Z,40.38
2022-08-08T21:58:37.516Z,39.80
2022-08-08T22:01:42.619Z,39.97
2022-08-08T22:04:46.109Z,39.38
2022-08-08T22:07:49.821Z,39.80
2022-08-08T22:10:55.258Z,39.64
2022-08-08T22:13:59.084Z,40.14
2022-08-08T22:17:03.890Z,39.10
2022-08-08T22:20:12.444Z,38.68
2022-08-08T22:23:22.111Z,39.19
2022-08-08T22:26:34.515Z,38.74
2022-08-08T22:30:02.083Z,38.35
2022-08-08T22:33:09.147Z,38.34
2022-08-08T22:36:34.236Z,38.68
2022-08-08T22:39:39.409Z,38.66
2022-08-08T22:42:51.098Z,38.81
2022-08-08T22:45:54.431Z,38.14
2022-08-08T22:49:00.516Z,38.01
2022-08-08T22:52:04.361Z,37.68
2022-08-08T22:55:09.354Z,38.06
2022-08-08T22:58:14.611Z,37.77
2022-08-08T23:02:02.461Z,38.03
2022-08-08T23:04:56.080Z,39.89
2022-08-08T23:08:00.117Z,40.20
2022-08-08T23:11:06.300Z,42.61
2022-08-08T23:14:18.633Z,44.36
2022-08-08T23:17:22.501Z,45.05
2022-08-08T23:20:33.338Z,44.61
2022-08-08T23:23:48.764Z,44.23
2022-08-08T23:26:59.813Z,44.01
2022-08-08T23:30:09.360Z,44.06
2022-08-08T23:33:19.249Z,45.08
2022-08-08T23:36:26.307Z,44.76
2022-08-08T23:39:32.138Z,44.38
2022-08-08T23:42:45.143Z,44.05
2022-08-08T23:49:00.789Z,44.40
2022-08-08T23:49:18.946Z,43.68
2022-08-08T23:52:23.377Z,43.50
2022-08-08T23:55:29.038Z,43.32
2022-08-08T23:58:37.402Z,42.70
